Time,TemperatureF,DewpointF,PressureIn,WindDirection,WindDirectionDegrees,WindSpeedMPH,WindSpeedGustMPH,Humidity,HourlyPrecipIn,Conditions,Clouds,dailyrainin,SoftwareType,DateUTC
2013-06-04 00:04:00,56.2,55.0,28.27,NW,320,0.0,2.0,97,0.00,,,0.00,weatherlink.com 1.10,2013-06-04 04:04:00,
2013-06-04 00:19:00,55.8,55.0,28.27,NNW,340,1.0,3.0,97,0.00,,,0.00,weatherlink.com 1.10,2013-06-04 04:19:00,
2013-06-04 00:34:00,55.4,55.0,28.28,NW,325,0.0,1.0,97,0.00,,,0.00,weatherlink.com 1.10,2013-06-04 04:34:00,
2013-06-04 00:49:00,54.9,54.0,28.28,NW,325,0.0,0.0,96,0.00,,,0.00,weatherlink.com 1.10,2013-06-04 04:49:00,
2013-06-04 01:04:00,54.0,53.0,28.28,NW,324,0.0,0.0,97,0.00,,,0.00,weatherlink.com 1.10,2013-06-04 05:04:00,
2013-06-04 01:19:00,53.9,53.0,28.28,NW,325,0.0,1.0,97,0.00,,,0.00,weatherlink.com 1.10,2013-06-04 05:19:00,
2013-06-04 01:34:00,53.6,53.0,28.28,NW,323,0.0,0.0,97,0.00,,,0.00,weatherlink.com 1.10,2013-06-04 05:34:00,
2013-06-04 01:49:00,53.0,52.0,28.28,NW,325,0.0,0.0,97,0.00,,,0.00,weatherlink.com 1.10,2013-06-04 05:49:00,
2013-06-04 02:04:00,52.9,52.0,28.28,SW,228,0.0,1.0,97,0.00,,,0.00,weatherlink.com 1.10,2013-06-04 06:04:00,
2013-06-04 02:19:00,52.4,52.0,28.28,SW,228,0.0,0.0,97,0.00,,,0.00,weatherlink.com 1.10,2013-06-04 06:19:00,
2013-06-04 02:34:00,52.4,52.0,28.28,SW,228,0.0,0.0,98,0.00,,,0.00,weatherlink.com 1.10,2013-06-04 06:34:00,
2013-06-04 02:49:00,53.4,53.0,28.29,SW,228,0.0,0.0,98,0.00,,,0.00,weatherlink.com 1.10,2013-06-04 06:49:00,
2013-06-04 03:04:00,54.1,54.0,28.29,NW,309,2.0,2.0,98,0.00,,,0.00,weatherlink.com 1.10,2013-06-04 07:04:00,
2013-06-04 03:19:00,53.7,53.0,28.29,NNW,339,2.0,3.0,98,0.00,,,0.00,weatherlink.com 1.10,2013-06-04 07:19:00,
2013-06-04 03:34:00,53.8,53.0,28.30,NW,315,0.0,-999.0,98,-99.99,,,0.00,weatherlink.com 1.10,2013-06-04 07:34:00,
2013-06-04 03:49:00,53.9,53.0,28.30,NW,304,1.0,2.0,98,0.00,,,0.00,weatherlink.com 1.10,2013-06-04 07:49:00,
2013-06-04 04:04:00,53.7,53.0,28.30,NW,319,2.0,4.0,98,0.00,,,0.00,weatherlink.com 1.10,2013-06-04 08:04:00,
2013-06-04 04:19:00,53.5,53.0,28.30,WNW,289,0.0,3.0,97,0.00,,,0.00,weatherlink.com 1.10,2013-06-04 08:19:00,
2013-06-04 04:34:00,53.4,53.0,28.30,West,281,0.0,4.0,97,0.00,,,0.00,weatherlink.com 1.10,2013-06-04 08:34:00,
2013-06-04 04:49:00,53.4,53.0,28.30,NW,318,0.0,4.0,97,0.00,,,0.00,weatherlink.com 1.10,2013-06-04 08:49:00,
2013-06-04 05:05:00,53.3,53.0,28.31,NW,319,2.0,3.0,97,0.00,,,0.00,weatherlink.com 1.10,2013-06-04 09:05:00,
2013-06-04 05:20:00,53.1,52.0,28.31,NW,304,1.0,4.0,97,0.00,,,0.00,weatherlink.com 1.10,2013-06-04 09:20:00,
2013-06-04 05:35:00,53.1,52.0,28.32,NNW,333,2.0,4.0,97,0.00,,,0.00,weatherlink.com 1.10,2013-06-04 09:35:00,
2013-06-04 05:50:00,52.9,52.0,28.33,NW,323,3.0,4.0,97,0.00,,,0.00,weatherlink.com 1.10,2013-06-04 09:50:00,
2013-06-04 06:05:00,52.9,52.0,28.34,NNW,340,3.0,4.0,97,0.00,,,0.00,weatherlink.com 1.10,2013-06-04 10:05:00,
2013-06-04 06:20:00,52.9,52.0,28.34,West,263,0.0,3.0,97,0.00,,,0.00,weatherlink.com 1.10,2013-06-04 10:20:00,
2013-06-04 06:35:00,52.5,52.0,28.34,WNW,293,0.0,4.0,97,0.00,,,0.00,weatherlink.com 1.10,2013-06-04 10:35:00,
2013-06-04 06:50:00,52.2,51.0,28.34,NW,315,1.0,3.0,97,0.00,,,0.00,weatherlink.com 1.10,2013-06-04 10:50:00,
2013-06-04 07:05:00,52.7,52.0,28.35,NW,321,0.0,2.0,97,0.00,,,0.00,weatherlink.com 1.10,2013-06-04 11:05:00,
2013-06-04 07:20:00,53.0,52.0,28.35,NNW,345,2.0,3.0,97,0.00,,,0.00,weatherlink.com 1.10,2013-06-04 11:20:00,
2013-06-04 07:35:00,53.2,52.0,28.36,NNW,328,2.0,3.0,96,0.00,,,0.00,weatherlink.com 1.10,2013-06-04 11:35:00,
2013-06-04 07:50:00,53.6,52.0,28.36,WNW,300,1.0,3.0,95,0.00,,,0.00,weatherlink.com 1.10,2013-06-04 11:50:00,
2013-06-04 08:05:00,54.2,53.0,28.37,NNW,333,1.0,2.0,95,0.00,,,0.00,weatherlink.com 1.10,2013-06-04 12:05:00,
2013-06-04 08:20:00,54.5,53.0,28.37,NNW,328,0.0,3.0,93,0.00,,,0.00,weatherlink.com 1.10,2013-06-04 12:20:00,
2013-06-04 08:35:00,55.2,53.0,28.38,South,188,1.0,3.0,92,0.00,,,0.00,weatherlink.com 1.10,2013-06-04 12:35:00,
2013-06-04 08:50:00,56.3,54.0,28.38,NNW,336,0.0,3.0,91,0.00,,,0.00,weatherlink.com 1.10,2013-06-04 12:50:00,
2013-06-04 09:05:00,57.2,53.0,28.39,NNW,343,4.0,5.0,87,0.00,,,0.00,weatherlink.com 1.10,2013-06-04 13:05:00,
2013-06-04 09:20:00,57.4,52.0,28.39,North,349,6.0,8.0,83,0.00,,,0.00,weatherlink.com 1.10,2013-06-04 13:20:00,
2013-06-04 09:35:00,57.8,52.0,28.39,North,358,2.0,6.0,80,0.00,,,0.00,weatherlink.com 1.10,2013-06-04 13:35:00,
2013-06-04 09:50:00,58.8,52.0,28.39,NNW,336,2.0,4.0,77,0.00,,,0.00,weatherlink.com 1.10,2013-06-04 13:50:00,
2013-06-04 10:05:00,59.0,50.0,28.40,North,354,2.0,5.0,71,0.00,,,0.00,weatherlink.com 1.10,2013-06-04 14:05:00,
2013-06-04 10:20:00,59.5,48.0,28.40,NNW,345,5.0,5.0,66,0.00,,,0.00,weatherlink.com 1.10,2013-06-04 14:20:00,
2013-06-04 10:35:00,61.2,48.0,28.39,NW,304,0.0,5.0,63,0.00,,,0.00,weatherlink.com 1.10,2013-06-04 14:35:00,
2013-06-04 10:50:00,62.4,49.0,28.39,NW,322,1.0,6.0,62,0.00,,,0.00,weatherlink.com 1.10,2013-06-04 14:50:00,
2013-06-04 11:05:00,63.3,49.0,28.39,NNW,332,3.0,7.0,59,0.00,,,0.00,weatherlink.com 1.10,2013-06-04 15:05:00,
2013-06-04 11:20:00,65.4,48.0,28.39,SSE,167,1.0,6.0,53,0.00,,,0.00,weatherlink.com 1.10,2013-06-04 15:20:00,
2013-06-04 11:35:00,65.2,48.0,28.39,NNW,342,4.0,7.0,55,0.00,,,0.00,weatherlink.com 1.10,2013-06-04 15:35:00,
2013-06-04 11:50:00,65.0,48.0,28.39,North,358,1.0,9.0,54,0.00,,,0.00,weatherlink.com 1.10,2013-06-04 15:50:00,
2013-06-04 12:05:00,66.0,49.0,28.38,ESE,110,0.0,5.0,54,0.00,,,0.00,weatherlink.com 1.10,2013-06-04 16:05:00,
2013-06-04 12:20:00,66.7,48.0,28.38,North,350,5.0,8.0,52,0.00,,,0.00,weatherlink.com 1.10,2013-06-04 16:20:00,
2013-06-04 12:35:00,67.1,49.0,28.36,ESE,122,2.0,6.0,53,0.00,,,0.00,weatherlink.com 1.10,2013-06-04 16:35:00,
2013-06-04 12:50:00,68.5,51.0,28.36,SW,232,0.0,7.0,53,0.00,,,0.00,weatherlink.com 1.10,2013-06-04 16:50:00,
2013-06-04 13:06:00,70.1,52.0,28.35,ENE,70,0.0,3.0,52,0.00,,,0.00,weatherlink.com 1.10,2013-06-04 17:06:00,
2013-06-04 13:20:00,71.5,50.0,28.35,SE,140,1.0,5.0,46,0.00,,,0.00,weatherlink.com 1.10,2013-06-04 17:20:00,
2013-06-04 13:35:00,72.6,53.0,28.35,NNE,12,1.0,2.0,50,0.00,,,0.00,weatherlink.com 1.10,2013-06-04 17:35:00,
2013-06-04 13:50:00,72.9,53.0,28.35,SE,140,0.0,4.0,50,0.00,,,0.00,weatherlink.com 1.10,2013-06-04 17:50:00,
2013-06-04 14:06:00,72.0,48.0,28.34,WNW,288,0.0,5.0,42,0.00,,,0.00,weatherlink.com 1.10,2013-06-04 18:06:00,
2013-06-04 14:21:00,72.1,49.0,28.34,North,352,0.0,4.0,44,0.00,,,0.00,weatherlink.com 1.10,2013-06-04 18:21:00,
2013-06-04 14:36:00,74.2,51.0,28.34,NNW,345,4.0,5.0,44,0.00,,,0.00,weatherlink.com 1.10,2013-06-04 18:36:00,
2013-06-04 14:51:00,74.3,48.0,28.33,SE,146,0.0,5.0,40,0.00,,,0.00,weatherlink.com 1.10,2013-06-04 18:51:00,
2013-06-04 15:06:00,74.6,53.0,28.33,NW,324,3.0,4.0,47,0.00,,,0.00,weatherlink.com 1.10,2013-06-04 19:06:00,
2013-06-04 15:21:00,74.2,53.0,28.34,NNW,339,1.0,6.0,47,0.00,,,0.00,weatherlink.com 1.10,2013-06-04 19:21:00,
2013-06-04 15:36:00,74.5,53.0,28.33,NW,318,3.0,8.0,47,0.00,,,0.00,weatherlink.com 1.10,2013-06-04 19:36:00,
2013-06-04 15:51:00,74.9,53.0,28.32,SSE,165,2.0,8.0,46,0.00,,,0.00,weatherlink.com 1.10,2013-06-04 19:51:00,
2013-06-04 16:06:00,76.0,51.0,28.32,West,276,1.0,4.0,41,0.00,,,0.00,weatherlink.com 1.10,2013-06-04 20:06:00,
2013-06-04 16:21:00,74.8,49.0,28.31,NNW,329,2.0,7.0,41,0.00,,,0.00,weatherlink.com 1.10,2013-06-04 20:21:00,
2013-06-04 16:36:00,75.2,52.0,28.31,NNW,330,1.0,4.0,45,0.00,,,0.00,weatherlink.com 1.10,2013-06-04 20:36:00,
2013-06-04 16:51:00,75.3,49.0,28.31,WNW,287,0.0,8.0,39,0.00,,,0.00,weatherlink.com 1.10,2013-06-04 20:51:00,
2013-06-04 17:06:00,75.2,50.0,28.31,NW,315,5.0,5.0,41,0.00,,,0.00,weatherlink.com 1.10,2013-06-04 21:06:00,
2013-06-04 17:21:00,74.9,51.0,28.31,ESE,104,2.0,5.0,44,0.00,,,0.00,weatherlink.com 1.10,2013-06-04 21:21:00,
2013-06-04 17:36:00,74.1,50.0,28.30,WNW,301,1.0,4.0,43,0.00,,,0.00,weatherlink.com 1.10,2013-06-04 21:36:00,
2013-06-04 17:51:00,73.4,52.0,28.31,NW,318,0.0,3.0,47,0.00,,,0.00,weatherlink.com 1.10,2013-06-04 21:51:00,
2013-06-04 18:06:00,73.7,52.0,28.31,NW,304,0.0,5.0,47,0.00,,,0.00,weatherlink.com 1.10,2013-06-04 22:06:00,
2013-06-04 18:21:00,72.6,49.0,28.31,WNW,290,3.0,6.0,44,0.00,,,0.00,weatherlink.com 1.10,2013-06-04 22:21:00,
2013-06-04 18:36:00,72.3,50.0,28.31,NNW,342,2.0,5.0,45,0.00,,,0.00,weatherlink.com 1.10,2013-06-04 22:36:00,
2013-06-04 18:51:00,72.1,51.0,28.31,SW,224,0.0,4.0,47,0.00,,,0.00,weatherlink.com 1.10,2013-06-04 22:51:00,
2013-06-04 19:06:00,71.2,53.0,28.31,South,169,0.0,2.0,52,0.00,,,0.00,weatherlink.com 1.10,2013-06-04 23:06:00,
2013-06-04 19:21:00,70.2,53.0,28.32,SSE,153,0.0,3.0,54,0.00,,,0.00,weatherlink.com 1.10,2013-06-04 23:21:00,
2013-06-04 19:36:00,69.9,51.0,28.32,WNW,297,0.0,3.0,52,0.00,,,0.00,weatherlink.com 1.10,2013-06-04 23:36:00,
2013-06-04 19:51:00,69.4,52.0,28.33,East,86,0.0,1.0,54,0.00,,,0.00,weatherlink.com 1.10,2013-06-04 23:51:00,
2013-06-04 20:06:00,68.1,53.0,28.33,SSW,204,0.0,1.0,58,0.00,,,0.00,weatherlink.com 1.10,2013-06-05 00:06:00,
2013-06-04 20:21:00,67.3,53.0,28.33,NNW,329,0.0,4.0,61,0.00,,,0.00,weatherlink.com 1.10,2013-06-05 00:21:00,
2013-06-04 20:37:00,66.5,53.0,28.34,NW,313,0.0,3.0,62,0.00,,,0.00,weatherlink.com 1.10,2013-06-05 00:37:00,
2013-06-04 20:52:00,65.7,53.0,28.34,NW,322,1.0,2.0,64,0.00,,,0.00,weatherlink.com 1.10,2013-06-05 00:52:00,
2013-06-04 21:07:00,64.9,53.0,28.36,WNW,300,0.0,2.0,66,0.00,,,0.00,weatherlink.com 1.10,2013-06-05 01:07:00,
2013-06-04 21:22:00,64.1,55.0,28.36,WNW,300,0.0,1.0,71,0.00,,,0.00,weatherlink.com 1.10,2013-06-05 01:22:00,
2013-06-04 21:37:00,63.4,54.0,28.37,NNW,329,1.0,2.0,72,0.00,,,0.00,weatherlink.com 1.10,2013-06-05 01:37:00,
2013-06-04 21:52:00,63.1,54.0,28.38,NNW,339,2.0,2.0,72,0.00,,,0.00,weatherlink.com 1.10,2013-06-05 01:52:00,
2013-06-04 22:07:00,62.4,55.0,28.38,NNW,332,0.0,1.0,76,0.00,,,0.00,weatherlink.com 1.10,2013-06-05 02:07:00,
2013-06-04 22:22:00,61.9,54.0,28.38,NW,309,0.0,3.0,74,0.00,,,0.00,weatherlink.com 1.10,2013-06-05 02:22:00,
2013-06-04 22:37:00,61.5,54.0,28.39,NW,314,0.0,2.0,76,0.00,,,0.00,weatherlink.com 1.10,2013-06-05 02:37:00,
2013-06-04 22:52:00,61.4,53.0,28.39,NW,312,0.0,1.0,75,0.00,,,0.00,weatherlink.com 1.10,2013-06-05 02:52:00,
2013-06-04 23:07:00,60.5,53.0,28.39,NW,312,0.0,0.0,77,0.00,,,0.00,weatherlink.com 1.10,2013-06-05 03:07:00,
2013-06-04 23:22:00,58.8,53.0,28.39,NW,312,0.0,0.0,82,0.00,,,0.00,weatherlink.com 1.10,2013-06-05 03:22:00,
2013-06-04 23:37:00,57.2,53.0,28.39,NW,312,0.0,0.0,85,0.00,,,0.00,weatherlink.com 1.10,2013-06-05 03:37:00,
2013-06-04 23:52:00,56.1,52.0,28.39,NW,312,0.0,1.0,86,0.00,,,0.00,weatherlink.com 1.10,2013-06-05 03:52:00,